sensor_id;sensor_type;location;lat;lon;timestamp;pressure;altitude;pressure_sealevel;temperature;humidity
33191;BME280;19554;42.652;23.364;2023-06-01T00:00:30;94775.91;;;16.71;70.22
33191;BME280;19554;42.652;23.364;2023-06-01T00:02:56;94748.56;;;16.52;70.68
33191;BME280;19554;42.652;23.364;2023-06-01T00:05:21;94757.09;;;16.54;71.07
33191;BME280;19554;42.652;23.364;2023-06-01T00:07:47;94767.88;;;16.63;71.20
33191;BME280;19554;42.652;23.364;2023-06-01T00:10:12;94768.66;;;16.63;71.28
33191;BME280;19554;42.652;23.364;2023-06-01T00:12:38;94767.88;;;16.63;71.05
33191;BME280;19554;42.652;23.364;2023-06-01T00:15:03;94766.44;;;16.56;70.90
33191;BME280;19554;42.652;23.364;2023-06-01T00:17:29;94758.41;;;16.48;70.92
33191;BME280;19554;42.652;23.364;2023-06-01T00:19:56;94743.22;;;16.34;70.85
33191;BME280;19554;42.652;23.364;2023-06-01T00:22:21;94769.34;;;16.51;71.34
33191;BME280;19554;42.652;23.364;2023-06-01T00:24:49;94748.75;;;16.38;71.18
33191;BME280;19554;42.652;23.364;2023-06-01T00:27:14;94768.50;;;16.51;70.97
33191;BME280;19554;42.652;23.364;2023-06-01T00:29:40;94766.00;;;16.46;71.13
33191;BME280;19554;42.652;23.364;2023-06-01T00:32:06;94772.97;;;16.47;70.85
33191;BME280;19554;42.652;23.364;2023-06-01T00:34:31;94719.16;;;16.12;71.33
33191;BME280;19554;42.652;23.364;2023-06-01T00:36:57;94767.28;;;16.40;71.91
33191;BME280;19554;42.652;23.364;2023-06-01T00:39:22;94746.25;;;16.24;71.53
33191;BME280;19554;42.652;23.364;2023-06-01T00:41:47;94769.00;;;16.44;71.35
33191;BME280;19554;42.652;23.364;2023-06-01T00:44:13;94763.00;;;16.39;71.06
33191;BME280;19554;42.652;23.364;2023-06-01T00:46:38;94762.53;;;16.37;70.77
33191;BME280;19554;42.652;23.364;2023-06-01T00:49:04;94770.78;;;16.31;70.73
33191;BME280;19554;42.652;23.364;2023-06-01T00:51:32;94722.38;;;15.97;70.58
33191;BME280;19554;42.652;23.364;2023-06-01T00:53:58;94750.84;;;16.15;71.16
33191;BME280;19554;42.652;23.364;2023-06-01T00:56:24;94770.31;;;16.29;71.16
33191;BME280;19554;42.652;23.364;2023-06-01T00:58:52;94719.84;;;16.00;70.31
33191;BME280;19554;42.652;23.364;2023-06-01T01:01:17;94769.03;;;16.27;69.66
33191;BME280;19554;42.652;23.364;2023-06-01T01:03:47;94743.88;;;16.05;69.64
33191;BME280;19554;42.652;23.364;2023-06-01T01:08:59;94768.28;;;16.09;69.92
33191;BME280;19554;42.652;23.364;2023-06-01T01:11:32;94755.94;;;15.91;70.83
33191;BME280;19554;42.652;23.364;2023-06-01T01:15:00;94768.44;;;15.95;72.49
33191;BME280;19554;42.652;23.364;2023-06-01T01:17:36;94773.34;;;15.84;72.04
33191;BME280;19554;42.652;23.364;2023-06-01T01:20:37;94773.69;;;15.83;71.84
33191;BME280;19554;42.652;23.364;2023-06-01T01:23:26;94784.25;;;15.71;71.57
33191;BME280;19554;42.652;23.364;2023-06-01T01:28:52;94756.84;;;15.60;72.12
33191;BME280;19554;42.652;23.364;2023-06-01T01:31:22;94775.41;;;15.70;72.47
33191;BME280;19554;42.652;23.364;2023-06-01T01:33:50;94788.06;;;15.78;72.30
33191;BME280;19554;42.652;23.364;2023-06-01T01:36:18;94752.94;;;15.66;72.05
33191;BME280;19554;42.652;23.364;2023-06-01T01:38:44;94774.75;;;15.82;72.07
33191;BME280;19554;42.652;23.364;2023-06-01T01:41:09;94780.94;;;15.82;71.54
33191;BME280;19554;42.652;23.364;2023-06-01T01:43:35;94753.03;;;15.61;70.79
33191;BME280;19554;42.652;23.364;2023-06-01T01:49:02;94779.34;;;15.81;69.56
33191;BME280;19554;42.652;23.364;2023-06-01T01:51:40;94775.72;;;15.86;69.37
33191;BME280;19554;42.652;23.364;2023-06-01T01:54:09;94771.78;;;15.83;69.72
33191;BME280;19554;42.652;23.364;2023-06-01T01:56:36;94778.88;;;15.88;69.78
33191;BME280;19554;42.652;23.364;2023-06-01T01:59:03;94781.25;;;15.90;69.83
33191;BME280;19554;42.652;23.364;2023-06-01T02:01:30;94786.63;;;15.90;69.59
33191;BME280;19554;42.652;23.364;2023-06-01T02:04:03;94784.13;;;15.84;69.90
33191;BME280;19554;42.652;23.364;2023-06-01T02:06:30;94786.50;;;15.77;70.21
33191;BME280;19554;42.652;23.364;2023-06-01T02:08:56;94788.22;;;15.73;70.25
33191;BME280;19554;42.652;23.364;2023-06-01T02:11:21;94778.72;;;15.67;71.06
33191;BME280;19554;42.652;23.364;2023-06-01T02:13:47;94736.88;;;15.44;70.96
33191;BME280;19554;42.652;23.364;2023-06-01T02:16:13;94784.09;;;15.67;71.48
33191;BME280;19554;42.652;23.364;2023-06-01T02:18:38;94777.75;;;15.63;71.44
33191;BME280;19554;42.652;23.364;2023-06-01T02:21:05;94789.13;;;15.60;71.44
33191;BME280;19554;42.652;23.364;2023-06-01T02:23:30;94786.56;;;15.55;71.99
33191;BME280;19554;42.652;23.364;2023-06-01T02:25:55;94761.25;;;15.38;72.48
33191;BME280;19554;42.652;23.364;2023-06-01T02:28:21;94745.41;;;15.28;72.57
33191;BME280;19554;42.652;23.364;2023-06-01T02:30:46;94790.22;;;15.50;73.30
33191;BME280;19554;42.652;23.364;2023-06-01T02:33:11;94758.38;;;15.26;71.30
33191;BME280;19554;42.652;23.364;2023-06-01T02:35:37;94783.72;;;15.43;71.22
33191;BME280;19554;42.652;23.364;2023-06-01T02:38:03;94791.13;;;15.37;71.98
33191;BME280;19554;42.652;23.364;2023-06-01T02:40:29;94785.91;;;15.40;72.01
33191;BME280;19554;42.652;23.364;2023-06-01T02:42:54;94773.72;;;15.26;71.20
33191;BME280;19554;42.652;23.364;2023-06-01T02:45:20;94765.16;;;15.15;71.81
33191;BME280;19554;42.652;23.364;2023-06-01T02:47:45;94796.84;;;15.35;72.24
33191;BME280;19554;42.652;23.364;2023-06-01T02:50:10;94794.78;;;15.32;72.51
33191;BME280;19554;42.652;23.364;2023-06-01T02:52:36;94784.00;;;15.32;73.43
33191;BME280;19554;42.652;23.364;2023-06-01T02:55:02;94769.13;;;15.26;73.09
33191;BME280;19554;42.652;23.364;2023-06-01T02:57:27;94786.25;;;15.39;74.39
33191;BME280;19554;42.652;23.364;2023-06-01T02:59:53;94774.22;;;15.36;73.84
33191;BME280;19554;42.652;23.364;2023-06-01T03:02:18;94786.41;;;15.43;72.67
33191;BME280;19554;42.652;23.364;2023-06-01T03:04:43;94787.03;;;15.39;71.76
33191;BME280;19554;42.652;23.364;2023-06-01T03:07:10;94796.50;;;15.37;71.39
33191;BME280;19554;42.652;23.364;2023-06-01T03:09:37;94768.78;;;15.19;71.40
33191;BME280;19554;42.652;23.364;2023-06-01T03:12:03;94728.22;;;14.89;72.27
33191;BME280;19554;42.652;23.364;2023-06-01T03:14:29;94783.69;;;15.25;72.14
33191;BME280;19554;42.652;23.364;2023-06-01T03:16:54;94799.53;;;15.35;71.87
33191;BME280;19554;42.652;23.364;2023-06-01T03:19:20;94795.09;;;15.39;72.02
33191;BME280;19554;42.652;23.364;2023-06-01T03:21:45;94796.84;;;15.44;71.46
33191;BME280;19554;42.652;23.364;2023-06-01T03:24:11;94805.56;;;15.50;71.39
33191;BME280;19554;42.652;23.364;2023-06-01T03:26:37;94799.91;;;15.60;71.52
33191;BME280;19554;42.652;23.364;2023-06-01T03:29:03;94792.81;;;15.73;71.72
33191;BME280;19554;42.652;23.364;2023-06-01T03:31:29;94803.13;;;15.97;70.80
33191;BME280;19554;42.652;23.364;2023-06-01T03:33:55;94796.78;;;16.10;70.02
33191;BME280;19554;42.652;23.364;2023-06-01T03:36:21;94800.09;;;16.33;69.31
33191;BME280;19554;42.652;23.364;2023-06-01T03:38:46;94792.75;;;16.59;68.25
33191;BME280;19554;42.652;23.364;2023-06-01T03:41:12;94797.31;;;16.85;67.24
33191;BME280;19554;42.652;23.364;2023-06-01T03:43:37;94789.31;;;17.06;65.77
33191;BME280;19554;42.652;23.364;2023-06-01T03:46:02;94763.41;;;17.14;64.88
33191;BME280;19554;42.652;23.364;2023-06-01T03:48:28;94738.50;;;17.17;63.98
33191;BME280;19554;42.652;23.364;2023-06-01T03:50:53;94798.03;;;17.71;63.69
33191;BME280;19554;42.652;23.364;2023-06-01T03:53:18;94771.16;;;17.74;63.03
33191;BME280;19554;42.652;23.364;2023-06-01T03:55:44;94798.06;;;17.92;62.64
33191;BME280;19554;42.652;23.364;2023-06-01T03:58:10;94788.75;;;18.02;62.08
33191;BME280;19554;42.652;23.364;2023-06-01T04:00:35;94794.09;;;18.10;61.61
33191;BME280;19554;42.652;23.364;2023-06-01T04:03:02;94801.06;;;18.11;62.27
33191;BME280;19554;42.652;23.364;2023-06-01T04:05:29;94797.19;;;18.21;61.93
33191;BME280;19554;42.652;23.364;2023-06-01T04:07:55;94778.63;;;18.19;61.83
33191;BME280;19554;42.652;23.364;2023-06-01T04:10:21;94805.94;;;18.39;62.22
33191;BME280;19554;42.652;23.364;2023-06-01T04:12:48;94807.81;;;18.59;62.51
33191;BME280;19554;42.652;23.364;2023-06-01T04:15:15;94777.63;;;18.69;61.91
33191;BME280;19554;42.652;23.364;2023-06-01T04:17:42;94806.38;;;19.07;61.26
33191;BME280;19554;42.652;23.364;2023-06-01T04:20:13;94773.19;;;18.74;61.64
33191;BME280;19554;42.652;23.364;2023-06-01T04:22:40;94803.22;;;19.17;60.85
33191;BME280;19554;42.652;23.364;2023-06-01T04:25:10;94801.31;;;19.06;61.52
33191;BME280;19554;42.652;23.364;2023-06-01T04:27:44;94808.41;;;19.10;61.78
33191;BME280;19554;42.652;23.364;2023-06-01T04:30:10;94799.81;;;18.84;61.45
33191;BME280;19554;42.652;23.364;2023-06-01T04:32:37;94781.41;;;18.44;62.45
33191;BME280;19554;42.652;23.364;2023-06-01T04:35:07;94814.22;;;18.55;63.94
33191;BME280;19554;42.652;23.364;2023-06-01T04:37:37;94804.63;;;18.24;66.30
33191;BME280;19554;42.652;23.364;2023-06-01T04:40:06;94804.91;;;18.64;65.31
33191;BME280;19554;42.652;23.364;2023-06-01T04:42:34;94781.44;;;18.77;64.41
33191;BME280;19554;42.652;23.364;2023-06-01T04:45:03;94804.09;;;18.97;62.73
33191;BME280;19554;42.652;23.364;2023-06-01T04:47:35;94811.97;;;18.78;62.83
33191;BME280;19554;42.652;23.364;2023-06-01T04:50:08;94817.63;;;18.64;64.07
33191;BME280;19554;42.652;23.364;2023-06-01T04:52:36;94815.72;;;18.98;63.66
33191;BME280;19554;42.652;23.364;2023-06-01T04:55:05;94822.84;;;19.51;61.89
33191;BME280;19554;42.652;23.364;2023-06-01T04:57:31;94817.56;;;19.79;60.42
33191;BME280;19554;42.652;23.364;2023-06-01T04:59:58;94821.63;;;19.85;60.75
33191;BME280;19554;42.652;23.364;2023-06-01T05:02:24;94818.63;;;20.15;59.26
33191;BME280;19554;42.652;23.364;2023-06-01T05:04:51;94828.91;;;20.22;59.27
33191;BME280;19554;42.652;23.364;2023-06-01T05:07:16;94828.50;;;20.35;57.82
33191;BME280;19554;42.652;23.364;2023-06-01T05:09:42;94821.03;;;19.92;58.80
33191;BME280;19554;42.652;23.364;2023-06-01T05:12:07;94826.38;;;19.64;61.16
33191;BME280;19554;42.652;23.364;2023-06-01T05:14:33;94797.47;;;19.19;62.31
33191;BME280;19554;42.652;23.364;2023-06-01T05:16:58;94821.09;;;19.68;61.58
33191;BME280;19554;42.652;23.364;2023-06-01T05:19:23;94802.81;;;19.77;60.77
33191;BME280;19554;42.652;23.364;2023-06-01T05:21:49;94810.88;;;19.89;61.66
33191;BME280;19554;42.652;23.364;2023-06-01T05:24:14;94803.94;;;20.16;60.13
33191;BME280;19554;42.652;23.364;2023-06-01T05:26:40;94802.06;;;20.04;60.43
33191;BME280;19554;42.652;23.364;2023-06-01T05:29:05;94822.50;;;20.42;59.21
33191;BME280;19554;42.652;23.364;2023-06-01T05:31:31;94804.66;;;20.41;59.62
33191;BME280;19554;42.652;23.364;2023-06-01T05:33:56;94819.53;;;20.47;58.37
33191;BME280;19554;42.652;23.364;2023-06-01T05:36:22;94825.19;;;20.82;58.72
33191;BME280;19554;42.652;23.364;2023-06-01T05:38:47;94824.28;;;20.78;58.97
33191;BME280;19554;42.652;23.364;2023-06-01T05:41:13;94821.75;;;20.70;59.47
33191;BME280;19554;42.652;23.364;2023-06-01T05:43:38;94809.31;;;20.69;59.01
33191;BME280;19554;42.652;23.364;2023-06-01T05:46:03;94728.50;;;20.46;58.95
33191;BME280;19554;42.652;23.364;2023-06-01T05:48:29;94823.13;;;21.23;58.46
33191;BME280;19554;42.652;23.364;2023-06-01T05:50:55;94810.94;;;21.33;58.13
33191;BME280;19554;42.652;23.364;2023-06-01T05:53:20;94815.00;;;21.39;56.93
33191;BME280;19554;42.652;23.364;2023-06-01T05:55:50;94797.38;;;21.17;56.82
33191;BME280;19554;42.652;23.364;2023-06-01T05:58:16;94819.66;;;21.39;58.21
33191;BME280;19554;42.652;23.364;2023-06-01T06:00:41;94819.97;;;21.53;57.08
33191;BME280;19554;42.652;23.364;2023-06-01T06:03:06;94815.63;;;21.48;56.85
33191;BME280;19554;42.652;23.364;2023-06-01T06:05:32;94817.97;;;21.66;56.87
33191;BME280;19554;42.652;23.364;2023-06-01T06:07:57;94823.22;;;21.74;56.71
33191;BME280;19554;42.652;23.364;2023-06-01T06:10:22;94756.66;;;21.49;56.51
33191;BME280;19554;42.652;23.364;2023-06-01T06:12:48;94816.00;;;21.82;56.68
33191;BME280;19554;42.652;23.364;2023-06-01T06:15:13;94809.09;;;21.85;56.26
33191;BME280;19554;42.652;23.364;2023-06-01T06:17:39;94687.56;;;21.15;57.02
33191;BME280;19554;42.652;23.364;2023-06-01T06:20:05;94816.47;;;22.04;57.00
33191;BME280;19554;42.652;23.364;2023-06-01T06:22:32;94818.59;;;21.94;56.41
33191;BME280;19554;42.652;23.364;2023-06-01T06:24:58;94740.47;;;21.21;56.39
33191;BME280;19554;42.652;23.364;2023-06-01T06:27:23;94827.63;;;21.47;57.19
33191;BME280;19554;42.652;23.364;2023-06-01T06:29:48;94827.63;;;21.47;57.54
33191;BME280;19554;42.652;23.364;2023-06-01T06:32:14;94760.94;;;20.87;57.55
33191;BME280;19554;42.652;23.364;2023-06-01T06:34:39;94825.13;;;21.11;58.84
33191;BME280;19554;42.652;23.364;2023-06-01T06:37:05;94829.16;;;21.17;59.37
33191;BME280;19554;42.652;23.364;2023-06-01T06:39:31;94822.72;;;21.37;58.86
33191;BME280;19554;42.652;23.364;2023-06-01T06:41:57;94822.19;;;21.47;59.15
33191;BME280;19554;42.652;23.364;2023-06-01T06:44:23;94820.44;;;21.71;58.53
33191;BME280;19554;42.652;23.364;2023-06-01T06:46:48;94775.66;;;21.49;57.36
33191;BME280;19554;42.652;23.364;2023-06-01T06:49:14;94820.31;;;21.67;57.15
33191;BME280;19554;42.652;23.364;2023-06-01T06:51:39;94809.19;;;21.57;56.99
33191;BME280;19554;42.652;23.364;2023-06-01T06:54:05;94815.88;;;21.94;57.67
33191;BME280;19554;42.652;23.364;2023-06-01T06:56:31;94801.81;;;22.43;56.38
33191;BME280;19554;42.652;23.364;2023-06-01T06:58:57;94814.22;;;22.83;55.81
33191;BME280;19554;42.652;23.364;2023-06-01T07:01:22;94700.59;;;22.34;55.00
33191;BME280;19554;42.652;23.364;2023-06-01T07:03:53;94802.00;;;23.16;53.33
33191;BME280;19554;42.652;23.364;2023-06-01T07:06:19;94816.09;;;22.99;54.55
33191;BME280;19554;42.652;23.364;2023-06-01T07:08:45;94818.03;;;23.21;54.01
33191;BME280;19554;42.652;23.364;2023-06-01T07:11:10;94787.44;;;23.05;54.19
33191;BME280;19554;42.652;23.364;2023-06-01T07:13:36;94818.09;;;22.63;54.33
33191;BME280;19554;42.652;23.364;2023-06-01T07:16:02;94815.81;;;22.45;55.87
33191;BME280;19554;42.652;23.364;2023-06-01T07:18:28;94807.91;;;22.37;56.58
33191;BME280;19554;42.652;23.364;2023-06-01T07:20:53;94791.28;;;22.42;56.45
33191;BME280;19554;42.652;23.364;2023-06-01T07:23:19;94811.59;;;22.67;56.17
33191;BME280;19554;42.652;23.364;2023-06-01T07:25:44;94809.22;;;22.85;55.36
33191;BME280;19554;42.652;23.364;2023-06-01T07:28:10;94781.56;;;22.83;55.98
33191;BME280;19554;42.652;23.364;2023-06-01T07:30:35;94809.56;;;23.26;54.47
33191;BME280;19554;42.652;23.364;2023-06-01T07:33:00;94767.34;;;23.13;54.61
33191;BME280;19554;42.652;23.364;2023-06-01T07:35:28;94810.75;;;23.52;53.71
33191;BME280;19554;42.652;23.364;2023-06-01T07:37:53;94803.34;;;23.49;53.31
33191;BME280;19554;42.652;23.364;2023-06-01T07:40:19;94798.91;;;23.40;53.87
33191;BME280;19554;42.652;23.364;2023-06-01T07:42:44;94781.72;;;23.36;53.98
33191;BME280;19554;42.652;23.364;2023-06-01T07:45:10;94780.72;;;23.22;53.71
33191;BME280;19554;42.652;23.364;2023-06-01T07:47:36;94779.34;;;23.35;54.21
33191;BME280;19554;42.652;23.364;2023-06-01T07:50:01;94770.78;;;23.33;53.48
33191;BME280;19554;42.652;23.364;2023-06-01T07:52:27;94771.81;;;23.02;54.10
33191;BME280;19554;42.652;23.364;2023-06-01T07:54:52;94761.09;;;23.12;54.44
33191;BME280;19554;42.652;23.364;2023-06-01T07:57:18;94793.00;;;23.12;54.54
33191;BME280;19554;42.652;23.364;2023-06-01T07:59:43;94756.00;;;22.88;55.34
33191;BME280;19554;42.652;23.364;2023-06-01T08:02:09;94761.28;;;23.23;54.90
33191;BME280;19554;42.652;23.364;2023-06-01T08:04:36;94779.88;;;23.67;53.31
33191;BME280;19554;42.652;23.364;2023-06-01T08:07:03;94775.84;;;23.84;52.84
33191;BME280;19554;42.652;23.364;2023-06-01T08:09:29;94776.31;;;23.89;53.61
33191;BME280;19554;42.652;23.364;2023-06-01T08:11:55;94725.63;;;23.32;52.96
33191;BME280;19554;42.652;23.364;2023-06-01T08:14:21;94775.47;;;23.85;53.89
33191;BME280;19554;42.652;23.364;2023-06-01T08:16:46;94772.84;;;24.23;53.65
33191;BME280;19554;42.652;23.364;2023-06-01T08:19:11;94770.22;;;24.30;53.30
33191;BME280;19554;42.652;23.364;2023-06-01T08:21:37;94769.78;;;24.24;52.45
33191;BME280;19554;42.652;23.364;2023-06-01T08:24:02;94772.91;;;23.96;53.36
33191;BME280;19554;42.652;23.364;2023-06-01T08:26:28;94772.75;;;23.85;53.54
33191;BME280;19554;42.652;23.364;2023-06-01T08:28:54;94758.25;;;24.08;52.97
33191;BME280;19554;42.652;23.364;2023-06-01T08:31:20;94760.78;;;24.54;51.91
33191;BME280;19554;42.652;23.364;2023-06-01T08:33:47;94764.03;;;24.67;51.13
33191;BME280;19554;42.652;23.364;2023-06-01T08:36:12;94749.13;;;24.57;50.22
33191;BME280;19554;42.652;23.364;2023-06-01T08:38:39;94757.69;;;24.55;51.13
33191;BME280;19554;42.652;23.364;2023-06-01T08:41:14;94652.56;;;23.98;51.46
33191;BME280;19554;42.652;23.364;2023-06-01T08:43:43;94756.41;;;23.85;52.55
33191;BME280;19554;42.652;23.364;2023-06-01T08:46:10;94666.53;;;22.86;53.67
33191;BME280;19554;42.652;23.364;2023-06-01T08:48:37;94740.72;;;23.52;54.01
33191;BME280;19554;42.652;23.364;2023-06-01T08:51:03;94741.84;;;23.74;54.44
33191;BME280;19554;42.652;23.364;2023-06-01T08:53:30;94741.44;;;24.02;53.49
33191;BME280;19554;42.652;23.364;2023-06-01T08:55:56;94735.28;;;24.09;52.49
33191;BME280;19554;42.652;23.364;2023-06-01T08:58:22;94728.34;;;24.15;51.77
33191;BME280;19554;42.652;23.364;2023-06-01T09:00:51;94652.38;;;23.53;52.51
33191;BME280;19554;42.652;23.364;2023-06-01T09:03:19;94722.84;;;24.11;52.45
33191;BME280;19554;42.652;23.364;2023-06-01T09:05:45;94712.97;;;24.33;51.32
33191;BME280;19554;42.652;23.364;2023-06-01T09:08:11;94730.06;;;24.30;50.81
33191;BME280;19554;42.652;23.364;2023-06-01T09:10:37;94724.06;;;24.48;51.38
33191;BME280;19554;42.652;23.364;2023-06-01T09:13:02;94722.09;;;24.45;52.13
33191;BME280;19554;42.652;23.364;2023-06-01T09:15:28;94729.25;;;24.26;51.12
33191;BME280;19554;42.652;23.364;2023-06-01T09:18:05;94723.31;;;23.87;51.54
33191;BME280;19554;42.652;23.364;2023-06-01T09:20:30;94722.63;;;23.94;51.58
33191;BME280;19554;42.652;23.364;2023-06-01T09:22:57;94721.19;;;24.03;50.77
33191;BME280;19554;42.652;23.364;2023-06-01T09:25:28;94720.31;;;23.96;51.62
33191;BME280;19554;42.652;23.364;2023-06-01T09:27:55;94720.09;;;23.78;52.80
33191;BME280;19554;42.652;23.364;2023-06-01T09:30:22;94691.31;;;23.54;51.82
33191;BME280;19554;42.652;23.364;2023-06-01T09:32:49;94717.53;;;23.65;52.93
33191;BME280;19554;42.652;23.364;2023-06-01T09:35:42;94717.19;;;23.67;53.04
33191;BME280;19554;42.652;23.364;2023-06-01T09:38:08;94711.06;;;23.47;53.36
33191;BME280;19554;42.652;23.364;2023-06-01T09:40:34;94711.00;;;23.44;53.27
33191;BME280;19554;42.652;23.364;2023-06-01T09:43:00;94702.16;;;23.24;53.00
33191;BME280;19554;42.652;23.364;2023-06-01T09:45:28;94708.91;;;23.33;53.10
33191;BME280;19554;42.652;23.364;2023-06-01T09:48:17;94700.47;;;23.15;53.40
33191;BME280;19554;42.652;23.364;2023-06-01T09:50:43;94693.06;;;23.39;54.05
33191;BME280;19554;42.652;23.364;2023-06-01T09:53:09;94690.03;;;23.48;51.38
33191;BME280;19554;42.652;23.364;2023-06-01T09:55:34;94689.25;;;23.47;51.10
33191;BME280;19554;42.652;23.364;2023-06-01T09:58:19;94642.53;;;23.45;50.93
33191;BME280;19554;42.652;23.364;2023-06-01T10:00:50;94676.69;;;23.96;50.02
33191;BME280;19554;42.652;23.364;2023-06-01T10:03:17;94677.84;;;24.28;49.29
33191;BME280;19554;42.652;23.364;2023-06-01T10:05:44;94676.00;;;24.40;47.54
33191;BME280;19554;42.652;23.364;2023-06-01T10:08:13;94680.41;;;24.48;46.83
33191;BME280;19554;42.652;23.364;2023-06-01T10:10:45;94666.81;;;24.51;45.88
33191;BME280;19554;42.652;23.364;2023-06-01T10:13:11;94633.38;;;24.24;45.39
33191;BME280;19554;42.652;23.364;2023-06-01T10:15:37;94661.53;;;24.32;44.44
33191;BME280;19554;42.652;23.364;2023-06-01T10:18:04;94661.00;;;24.19;43.30
33191;BME280;19554;42.652;23.364;2023-06-01T10:20:34;94638.75;;;23.80;43.50
33191;BME280;19554;42.652;23.364;2023-06-01T10:23:01;94670.41;;;23.92;42.76
33191;BME280;19554;42.652;23.364;2023-06-01T10:25:50;94671.81;;;23.78;44.43
33191;BME280;19554;42.652;23.364;2023-06-01T10:28:16;94667.88;;;23.76;43.68
33191;BME280;19554;42.652;23.364;2023-06-01T10:30:42;94675.53;;;23.67;44.08
33191;BME280;19554;42.652;23.364;2023-06-01T10:33:07;94667.09;;;23.75;43.83
33191;BME280;19554;42.652;23.364;2023-06-01T10:40:41;94670.25;;;23.77;41.41
33191;BME280;19554;42.652;23.364;2023-06-01T10:43:07;94661.59;;;23.72;41.64
33191;BME280;19554;42.652;23.364;2023-06-01T10:47:59;94659.53;;;23.65;41.91
33191;BME280;19554;42.652;23.364;2023-06-01T10:50:25;94591.59;;;23.19;41.55
33191;BME280;19554;42.652;23.364;2023-06-01T10:52:52;94655.66;;;23.66;42.13
33191;BME280;19554;42.652;23.364;2023-06-01T10:55:28;94649.78;;;23.64;42.43
33191;BME280;19554;42.652;23.364;2023-06-01T10:58:21;94649.13;;;23.71;43.61
33191;BME280;19554;42.652;23.364;2023-06-01T11:00:48;94640.66;;;23.79;44.18
33191;BME280;19554;42.652;23.364;2023-06-01T11:03:14;94639.91;;;23.82;43.62
33191;BME280;19554;42.652;23.364;2023-06-01T11:05:40;94637.19;;;23.82;43.81
33191;BME280;19554;42.652;23.364;2023-06-01T11:08:09;94623.41;;;23.68;43.81
33191;BME280;19554;42.652;23.364;2023-06-01T11:10:56;94631.75;;;23.52;43.88
33191;BME280;19554;42.652;23.364;2023-06-01T11:13:29;94636.00;;;23.50;44.35
33191;BME280;19554;42.652;23.364;2023-06-01T11:18:51;94645.53;;;23.36;42.65
33191;BME280;19554;42.652;23.364;2023-06-01T11:23:57;94639.16;;;23.25;43.61
33191;BME280;19554;42.652;23.364;2023-06-01T11:26:25;94644.06;;;23.16;44.10
33191;BME280;19554;42.652;23.364;2023-06-01T11:29:04;94643.50;;;23.03;45.94
33191;BME280;19554;42.652;23.364;2023-06-01T11:31:57;94650.34;;;22.93;46.76
33191;BME280;19554;42.652;23.364;2023-06-01T11:34:31;94660.59;;;22.35;51.48
33191;BME280;19554;42.652;23.364;2023-06-01T11:36:58;94667.28;;;21.79;53.74
33191;BME280;19554;42.652;23.364;2023-06-01T11:39:27;94678.41;;;21.55;53.41
33191;BME280;19554;42.652;23.364;2023-06-01T11:44:33;94600.78;;;20.35;54.40
33191;BME280;19554;42.652;23.364;2023-06-01T11:46:58;94700.53;;;20.58;53.46
33191;BME280;19554;42.652;23.364;2023-06-01T11:49:25;94713.00;;;20.31;55.61
33191;BME280;19554;42.652;23.364;2023-06-01T11:51:51;94704.72;;;20.11;57.82
33191;BME280;19554;42.652;23.364;2023-06-01T11:54:22;94710.31;;;20.19;57.27
33191;BME280;19554;42.652;23.364;2023-06-01T11:56:47;94702.84;;;20.28;58.98
33191;BME280;19554;42.652;23.364;2023-06-01T11:59:12;94700.56;;;20.30;61.10
33191;BME280;19554;42.652;23.364;2023-06-01T12:01:44;94697.78;;;20.42;61.73
33191;BME280;19554;42.652;23.364;2023-06-01T12:06:39;94689.19;;;20.40;58.55
33191;BME280;19554;42.652;23.364;2023-06-01T12:09:05;94681.56;;;20.30;59.73
33191;BME280;19554;42.652;23.364;2023-06-01T12:11:31;94676.94;;;20.15;60.38
33191;BME280;19554;42.652;23.364;2023-06-01T12:13:57;94655.88;;;19.96;60.56
33191;BME280;19554;42.652;23.364;2023-06-01T12:16:24;94657.81;;;19.67;61.78
33191;BME280;19554;42.652;23.364;2023-06-01T12:18:52;94647.53;;;19.60;63.16
33191;BME280;19554;42.652;23.364;2023-06-01T12:21:19;94634.47;;;19.62;63.39
33191;BME280;19554;42.652;23.364;2023-06-01T12:23:51;94626.16;;;19.43;64.75
33191;BME280;19554;42.652;23.364;2023-06-01T12:26:17;94572.53;;;19.21;65.26
33191;BME280;19554;42.652;23.364;2023-06-01T12:28:52;94625.53;;;19.62;64.56
33191;BME280;19554;42.652;23.364;2023-06-01T12:31:20;94614.59;;;19.71;65.35
33191;BME280;19554;42.652;23.364;2023-06-01T12:33:47;94629.41;;;19.89;65.04
33191;BME280;19554;42.652;23.364;2023-06-01T12:36:34;94625.56;;;19.90;66.13
33191;BME280;19554;42.652;23.364;2023-06-01T12:39:02;94587.88;;;19.85;66.41
33191;BME280;19554;42.652;23.364;2023-06-01T12:41:28;94610.50;;;20.21;66.44
33191;BME280;19554;42.652;23.364;2023-06-01T12:43:55;94607.59;;;20.29;66.44
33191;BME280;19554;42.652;23.364;2023-06-01T12:46:29;94611.78;;;20.27;65.44
33191;BME280;19554;42.652;23.364;2023-06-01T12:49:16;94610.66;;;20.44;66.81
33191;BME280;19554;42.652;23.364;2023-06-01T12:51:43;94607.88;;;20.40;66.70
33191;BME280;19554;42.652;23.364;2023-06-01T12:54:08;94616.09;;;20.28;65.39
33191;BME280;19554;42.652;23.364;2023-06-01T12:56:34;94603.06;;;20.18;66.48
33191;BME280;19554;42.652;23.364;2023-06-01T12:58:59;94612.06;;;20.22;67.63
33191;BME280;19554;42.652;23.364;2023-06-01T13:01:25;94602.28;;;20.33;66.83
33191;BME280;19554;42.652;23.364;2023-06-01T13:03:50;94595.81;;;20.53;67.27
33191;BME280;19554;42.652;23.364;2023-06-01T13:06:18;94594.44;;;20.59;66.90
33191;BME280;19554;42.652;23.364;2023-06-01T13:08:43;94585.41;;;20.71;66.11
33191;BME280;19554;42.652;23.364;2023-06-01T13:11:08;94582.75;;;20.91;65.88
33191;BME280;19554;42.652;23.364;2023-06-01T13:13:35;94531.44;;;20.66;65.68
33191;BME280;19554;42.652;23.364;2023-06-01T13:16:01;94571.84;;;21.06;60.51
33191;BME280;19554;42.652;23.364;2023-06-01T13:18:28;94562.94;;;21.06;60.97